Time;durP1;ratioP1;P1;durP2;ratioP2;P2;SDS_P1;SDS_P2;PMS_P1;PMS_P2;Temp;Humidity;BMP_temperature;BMP_pressure;BME280_temperature;BME280_humidity;BME280_pressure;Samples;Min_cycle;Max_cycle;Signal;HPM_P1;HPM_P2
2023/08/24 00:01:50;;;;;;;;;10.00;10.00;;;;;27.43;47.06;100951.00;4957855;28;45380;-44
2023/08/24 00:04:15;;;;;;;;;10.75;8.75;;;;;27.42;46.87;100949.31;4957811;28;45403;-44
2023/08/24 00:06:40;;;;;;;;;6.50;6.00;;;;;27.42;46.82;100949.31;4957561;28;48297;-43
2023/08/24 00:09:05;;;;;;;;;12.50;8.25;;;;;27.42;46.81;100941.34;4958034;28;45492;-39
2023/08/24 00:11:31;;;;;;;;;11.00;10.00;;;;;27.43;46.90;100940.38;4957403;28;52422;-41
2023/08/24 00:13:57;;;;;;;;;13.00;8.50;;;;;27.43;47.12;100939.53;4957101;28;65431;-42
2023/08/24 00:16:22;;;;;;;;;10.00;10.00;;;;;27.43;47.12;100934.22;4958146;28;45342;-43
2023/08/24 00:18:47;;;;;;;;;11.25;9.25;;;;;27.43;47.12;100928.91;4940579;28;45390;-43
2023/08/24 00:21:16;;;;;;;;;12.75;11.00;;;;;27.42;46.79;100928.03;4957465;28;45285;-45
2023/08/24 00:23:42;;;;;;;;;13.25;11.25;;;;;27.42;47.18;100932.53;4957641;28;45236;-44
2023/08/24 00:26:07;;;;;;;;;10.25;9.00;;;;;27.42;47.13;100936.03;4957696;28;45268;-44
2023/08/24 00:28:32;;;;;;;;;12.75;10.50;;;;;27.42;47.13;100932.53;4957186;28;54657;-47
2023/08/24 00:30:58;;;;;;;;;10.50;10.25;;;;;27.42;46.96;100938.69;4956773;28;63569;-42
2023/08/24 00:33:24;;;;;;;;;11.75;10.50;;;;;27.43;47.00;100931.56;4957637;28;45368;-44
2023/08/24 00:35:49;;;;;;;;;12.50;9.75;;;;;27.42;47.08;100938.69;4957415;28;45463;-43
2023/08/24 00:38:15;;;;;;;;;10.75;10.50;;;;;27.42;47.06;100948.50;4957680;28;45527;-40
2023/08/24 00:40:42;;;;;;;;;10.00;10.00;;;;;27.42;46.94;100949.31;4957255;28;46125;-46
2023/08/24 00:43:07;;;;;;;;;11.25;11.00;;;;;27.41;47.44;100942.31;4956158;28;45291;-46
2023/08/24 00:45:36;;;;;;;;;14.25;12.25;;;;;27.41;46.85;100944.13;4956706;28;59781;-43
2023/08/24 00:48:01;;;;;;;;;9.25;9.25;;;;;27.42;47.45;100938.69;4940165;28;45407;-39
2023/08/24 00:50:27;;;;;;;;;9.50;8.00;;;;;27.41;46.94;100942.31;4957223;28;46701;-46
2023/08/24 00:52:53;;;;;;;;;11.00;10.25;;;;;27.41;47.13;100939.66;4956981;28;45789;-44
2023/08/24 00:55:20;;;;;;;;;11.75;9.00;;;;;27.41;47.03;100942.31;4957289;28;45384;-46
2023/08/24 00:57:45;;;;;;;;;14.00;13.25;;;;;27.41;47.17;100941.47;4957404;28;45347;-45
2023/08/24 01:00:11;;;;;;;;;10.50;10.00;;;;;27.41;47.09;100942.31;4957107;28;46509;-45
2023/08/24 01:02:38;;;;;;;;;12.00;11.00;;;;;27.40;46.88;100940.63;4956939;28;45338;-43
2023/08/24 01:05:06;;;;;;;;;12.50;11.75;;;;;27.40;47.04;100943.28;4957319;28;45468;-44
2023/08/24 01:07:37;;;;;;;;;10.75;10.25;;;;;27.41;47.09;100936.97;4957286;28;45563;-45
2023/08/24 01:10:06;;;;;;;;;11.25;11.25;;;;;27.41;47.20;100947.63;4939693;28;46185;-40
2023/08/24 01:12:37;;;;;;;;;11.00;11.00;;;;;27.40;47.54;100956.59;4956886;28;45284;-42
2023/08/24 01:15:21;;;;;;;;;10.00;9.75;;;;;27.39;47.23;100949.59;4957113;28;45295;-42
2023/08/24 01:17:49;;;;;;;;;12.00;9.25;;;;;27.40;47.45;100945.94;4957174;28;45405;-46
2023/08/24 01:20:17;;;;;;;;;10.00;7.50;;;;;27.40;47.17;100945.94;4956876;28;45817;-44
2023/08/24 01:23:08;;;;;;;;;10.25;10.25;;;;;27.39;47.07;100940.75;4956810;28;45312;-47
2023/08/24 01:25:54;;;;;;;;;9.75;7.25;;;;;27.39;46.99;100933.63;4956991;28;45220;-45
2023/08/24 01:28:23;;;;;;;;;8.50;8.50;;;;;27.39;47.10;100925.66;4956917;28;45347;-44
2023/08/24 01:30:49;;;;;;;;;12.50;9.00;;;;;27.39;47.17;100923.00;4956748;28;45445;-47
2023/08/24 01:33:14;;;;;;;;;9.00;8.00;;;;;27.38;47.23;100926.63;4956670;28;45435;-44
2023/08/24 01:35:40;;;;;;;;;9.00;7.50;;;;;27.38;47.31;100921.28;4956773;28;45394;-48
2023/08/24 01:38:06;;;;;;;;;9.25;8.00;;;;;27.38;47.04;100912.44;4957043;28;45521;-46
2023/08/24 01:40:50;;;;;;;;;10.00;9.00;;;;;27.38;47.15;100923.97;4956552;28;46309;-43
2023/08/24 01:43:20;;;;;;;;;9.00;9.00;;;;;27.37;46.93;100916.94;4956717;28;45755;-40
2023/08/24 01:45:47;;;;;;;;;9.25;9.00;;;;;27.38;47.33;100915.97;4956711;28;45264;-39
2023/08/24 01:48:13;;;;;;;;;9.75;9.75;;;;;27.38;47.28;100913.31;4957001;28;45516;-41
2023/08/24 01:50:39;;;;;;;;;11.00;10.25;;;;;27.38;47.09;100905.31;4956296;28;46128;-47
2023/08/24 01:53:04;;;;;;;;;10.25;9.25;;;;;27.37;47.00;100900.13;4956363;28;45370;-49
2023/08/24 01:55:29;;;;;;;;;8.75;8.75;;;;;27.38;47.14;100896.47;4959533;28;45408;-52
2023/08/24 01:57:56;;;;;;;;;9.75;8.75;;;;;27.36;47.11;100893.97;4959952;28;45287;-50
2023/08/24 02:00:21;;;;;;;;;9.50;7.25;;;;;27.36;47.23;100901.94;4958980;28;46126;-47
2023/08/24 02:02:47;;;;;;;;;8.50;8.25;;;;;27.36;47.35;100890.44;4959719;28;45282;-47
2023/08/24 02:05:12;;;;;;;;;8.25;7.75;;;;;27.37;47.16;100887.66;4959624;28;45646;-51
2023/08/24 02:07:39;;;;;;;;;11.50;9.25;;;;;27.36;47.12;100891.31;4959922;28;45432;-40
2023/08/24 02:10:04;;;;;;;;;10.50;8.00;;;;;27.37;47.50;100885.00;4942013;28;47437;-40
2023/08/24 02:12:30;;;;;;;;;8.25;8.25;;;;;27.37;47.19;100881.47;4959696;28;45295;-40
2023/08/24 02:14:55;;;;;;;;;8.50;6.00;;;;;27.36;47.28;100878.00;4959654;28;45310;-46
2023/08/24 02:17:20;;;;;;;;;8.75;8.25;;;;;27.35;47.44;100881.63;4959214;28;51553;-44
2023/08/24 02:19:45;;;;;;;;;9.00;7.50;;;;;27.36;47.10;100878.00;4959023;28;54488;-46
2023/08/24 02:22:11;;;;;;;;;8.75;7.25;;;;;27.36;46.99;100879.78;4958863;28;55762;-46
2023/08/24 02:24:36;;;;;;;;;10.00;9.00;;;;;27.36;47.06;100875.34;4959071;28;51524;-42
2023/08/24 02:27:01;;;;;;;;;8.50;8.50;;;;;27.35;46.93;100876.31;4942181;28;48602;-47
2023/08/24 02:29:27;;;;;;;;;9.50;9.50;;;;;27.34;47.11;100871.94;4959215;28;46305;-47
2023/08/24 02:31:53;;;;;;;;;8.50;8.50;;;;;27.35;47.13;100873.63;4959093;28;45294;-41
2023/08/24 02:34:18;;;;;;;;;10.75;8.75;;;;;27.35;46.96;100870.13;4959357;28;45267;-44
2023/08/24 02:36:43;;;;;;;;;9.75;7.75;;;;;27.35;46.60;100873.63;4959012;28;45474;-49
2023/08/24 02:39:09;;;;;;;;;8.50;7.00;;;;;27.34;47.05;100866.63;4959241;28;45885;-47
2023/08/24 02:41:35;;;;;;;;;9.25;7.50;;;;;27.34;47.04;100865.78;4959270;28;45768;-46
2023/08/24 02:44:01;;;;;;;;;8.50;6.75;;;;;27.32;47.26;100852.59;4959485;28;45291;-47
2023/08/24 02:46:26;;;;;;;;;9.75;9.75;;;;;27.31;47.00;100850.91;4959310;28;45456;-41
2023/08/24 02:48:51;;;;;;;;;8.25;8.25;;;;;27.30;47.00;100841.25;4958853;28;48544;-48
2023/08/24 02:51:17;;;;;;;;;10.00;9.00;;;;;27.28;46.84;100843.22;4958737;28;45361;-47
2023/08/24 02:53:42;;;;;;;;;7.00;7.00;;;;;27.29;47.12;100847.53;4959173;28;45361;-44
2023/08/24 02:56:07;;;;;;;;;9.50;8.25;;;;;27.27;47.27;100833.53;4958609;28;52106;-45
2023/08/24 02:58:33;;;;;;;;;7.25;7.25;;;;;27.28;46.85;100835.22;4959199;28;45940;-39
2023/08/24 03:00:58;;;;;;;;;8.25;8.25;;;;;27.27;46.97;100828.22;4941398;28;47924;-41
2023/08/24 03:03:25;;;;;;;;;8.50;8.50;;;;;27.25;47.29;100827.50;4958974;28;45441;-43
2023/08/24 03:05:53;;;;;;;;;7.75;7.75;;;;;27.23;47.24;100826.78;4958028;28;45475;-40
2023/08/24 03:08:18;;;;;;;;;8.50;7.50;;;;;27.20;47.04;100827.03;4958646;28;46316;-39
2023/08/24 03:10:43;;;;;;;;;9.75;7.75;;;;;27.17;47.58;100815.66;4940848;28;47230;-39
2023/08/24 03:13:09;;;;;;;;;11.00;8.75;;;;;27.16;47.39;100814.00;4958703;28;45370;-44
2023/08/24 03:15:35;;;;;;;;;10.25;8.75;;;;;27.15;47.50;100808.78;4959013;28;45400;-39
2023/08/24 03:18:00;;;;;;;;;7.25;7.25;;;;;27.14;47.58;100807.97;4958524;28;47175;-45
2023/08/24 03:20:26;;;;;;;;;10.00;9.00;;;;;27.13;47.53;100800.94;4957193;28;45748;-42
2023/08/24 03:22:51;;;;;;;;;7.00;7.00;;;;;27.16;47.48;100805.16;4958638;28;45303;-45
2023/08/24 03:25:16;;;;;;;;;9.00;7.50;;;;;27.16;47.68;100810.47;4958788;28;45321;-42
2023/08/24 03:27:42;;;;;;;;;8.00;8.00;;;;;27.13;47.80;100800.94;4958475;28;46125;-47
2023/08/24 03:30:07;;;;;;;;;8.25;8.25;;;;;27.15;47.78;100808.78;4958597;28;45904;-48
2023/08/24 03:32:33;;;;;;;;;8.25;7.75;;;;;27.14;47.77;100797.31;4958733;28;45417;-44
2023/08/24 03:34:59;;;;;;;;;7.50;6.50;;;;;27.12;48.01;100799.25;4958746;28;45535;-47
2023/08/24 03:37:24;;;;;;;;;6.50;6.50;;;;;27.13;48.08;100798.28;4956937;28;46400;-48
2023/08/24 03:39:49;;;;;;;;;7.25;7.25;;;;;27.11;47.92;100800.22;4956913;28;48055;-46
2023/08/24 03:42:15;;;;;;;;;8.75;8.75;;;;;27.09;47.95;100798.69;4957944;28;53024;-43
2023/08/24 03:44:40;;;;;;;;;5.00;5.00;;;;;27.09;47.78;100799.50;4958023;28;50443;-45
2023/08/24 03:47:05;;;;;;;;;8.67;8.67;;;;;27.06;48.31;100799.78;4957499;28;69255;-46
2023/08/24 03:49:31;;;;;;;;;9.00;9.00;;;;;27.05;48.16;100797.25;4957855;28;45468;-47
2023/08/24 03:51:56;;;;;;;;;13.75;9.00;;;;;27.01;48.01;100799.31;4957717;28;50302;-44
2023/08/24 03:54:23;;;;;;;;;8.50;8.00;;;;;27.01;47.99;100794.81;4958224;28;45224;-44
2023/08/24 03:56:48;;;;;;;;;9.00;7.00;;;;;26.98;47.90;100792.44;4957961;28;46348;-38
2023/08/24 03:59:13;;;;;;;;;8.50;8.25;;;;;26.95;48.14;100800.69;4957614;28;52449;-42
2023/08/24 04:01:38;;;;;;;;;9.50;6.50;;;;;26.94;48.13;100795.50;4958466;28;45458;-43
2023/08/24 04:04:04;;;;;;;;;7.00;7.00;;;;;26.90;48.30;100786.91;4957709;28;45376;-41
2023/08/24 04:06:29;;;;;;;;;10.50;7.50;;;;;26.87;48.43;100789.84;4957491;28;55150;-44
2023/08/24 04:08:54;;;;;;;;;11.50;9.00;;;;;26.88;48.25;100796.00;4957841;28;45602;-40
2023/08/24 04:11:20;;;;;;;;;8.00;8.00;;;;;26.83;48.57;100789.25;4957960;28;45366;-40
2023/08/24 04:13:46;;;;;;;;;7.00;7.00;;;;;26.81;48.68;100793.00;4958129;28;45481;-38
2023/08/24 04:16:11;;;;;;;;;11.00;9.25;;;;;26.79;48.76;100794.97;4957567;28;46347;-41
2023/08/24 04:18:36;;;;;;;;;9.75;6.75;;;;;26.77;49.04;100784.41;4957800;28;45526;-42
2023/08/24 04:21:02;;;;;;;;;8.00;8.00;;;;;26.76;48.86;100777.41;4957901;28;45364;-44
2023/08/24 04:23:28;;;;;;;;;8.25;8.00;;;;;26.77;48.80;100776.44;4940670;28;45395;-41
2023/08/24 04:25:54;;;;;;;;;7.50;7.50;;;;;26.75;48.93;100785.50;4957664;28;46445;-40
2023/08/24 04:28:20;;;;;;;;;8.50;8.00;;;;;26.74;48.94;100782.00;4940334;28;45436;-38
2023/08/24 04:30:55;;;;;;;;;8.50;8.00;;;;;26.74;49.00;100782.00;4957842;28;45246;-39
2023/08/24 04:33:21;;;;;;;;;11.00;10.00;;;;;26.72;49.39;100781.31;4957831;28;45608;-40
2023/08/24 04:35:49;;;;;;;;;10.50;9.25;;;;;26.70;48.93;100772.59;4957558;28;46123;-39
2023/08/24 04:38:15;;;;;;;;;10.50;10.00;;;;;26.72;48.82;100769.81;4957429;28;45814;-39
2023/08/24 04:40:59;;;;;;;;;8.75;8.75;;;;;26.69;49.07;100768.25;4957898;28;45446;-44
2023/08/24 04:43:25;;;;;;;;;11.00;9.00;;;;;26.68;49.32;100769.22;4957653;28;45397;-41
2023/08/24 04:45:52;;;;;;;;;12.75;8.00;;;;;26.67;49.06;100763.09;4957037;28;46437;-42
2023/08/24 04:48:22;;;;;;;;;10.00;8.50;;;;;26.66;49.21;100760.53;4957280;28;45733;-43
2023/08/24 04:50:49;;;;;;;;;10.00;9.50;;;;;26.65;49.15;100759.69;4957336;28;45401;-45
2023/08/24 04:53:15;;;;;;;;;10.25;10.00;;;;;26.65;49.12;100756.19;4957498;28;45461;-41
2023/08/24 04:55:41;;;;;;;;;10.50;9.50;;;;;26.65;48.90;100748.22;4957436;28;46051;-41
2023/08/24 04:58:08;;;;;;;;;11.75;11.00;;;;;26.63;48.91;100748.34;4957199;28;45370;-45
2023/08/24 05:00:33;;;;;;;;;10.25;9.00;;;;;26.63;48.84;100744.81;4957205;28;45342;-42
2023/08/24 05:02:59;;;;;;;;;10.50;8.75;;;;;26.62;48.95;100746.66;4957418;28;45541;-42
2023/08/24 05:05:24;;;;;;;;;12.00;9.00;;;;;26.61;48.98;100757.44;4957038;28;45311;-42
2023/08/24 05:07:49;;;;;;;;;9.75;9.25;;;;;26.62;49.02;100759.13;4957084;28;45235;-41
2023/08/24 05:10:15;;;;;;;;;9.75;8.50;;;;;26.57;49.22;100759.47;4955930;28;45252;-44
2023/08/24 05:12:40;;;;;;;;;9.75;9.00;;;;;26.55;49.01;100750.81;4957259;28;45257;-47
2023/08/24 05:15:06;;;;;;;;;11.00;9.50;;;;;26.53;48.69;100750.91;4956870;28;46001;-41
2023/08/24 05:17:31;;;;;;;;;9.00;6.50;;;;;26.51;48.39;100752.84;4956897;28;45244;-48
2023/08/24 05:19:58;;;;;;;;;11.75;10.00;;;;;26.50;48.14;100761.81;4956971;28;45386;-41
2023/08/24 05:22:23;;;;;;;;;8.00;8.00;;;;;26.49;48.30;100754.81;4957215;28;45326;-46
2023/08/24 05:24:49;;;;;;;;;12.00;8.00;;;;;26.45;48.16;100753.38;4956257;28;61427;-42
2023/08/24 05:27:15;;;;;;;;;7.50;7.50;;;;;26.45;48.13;100753.38;4956910;28;45422;-42
2023/08/24 05:29:41;;;;;;;;;8.75;8.75;;;;;26.45;48.30;100763.16;4957463;28;45474;-38
2023/08/24 05:32:06;;;;;;;;;10.50;9.00;;;;;26.45;48.30;100769.31;4960332;28;45470;-42
2023/08/24 05:34:31;;;;;;;;;11.25;8.75;;;;;26.44;48.24;100769.44;4959966;28;45449;-41
2023/08/24 05:36:57;;;;;;;;;9.75;8.00;;;;;26.42;48.33;100758.91;4958728;28;45327;-41
2023/08/24 05:39:22;;;;;;;;;10.50;7.50;;;;;26.43;48.29;100765.94;4959837;28;45677;-47
2023/08/24 05:41:51;;;;;;;;;7.50;7.50;;;;;26.42;48.28;100758.91;4960151;28;45440;-49
2023/08/24 05:44:17;;;;;;;;;11.25;9.00;;;;;26.42;48.14;100753.59;4959780;28;46556;-47
2023/08/24 05:46:42;;;;;;;;;9.75;9.75;;;;;26.44;48.14;100748.19;4960254;28;45176;-46
2023/08/24 05:49:08;;;;;;;;;9.25;7.50;;;;;26.43;48.27;100736.69;4960066;28;45291;-42
2023/08/24 05:51:33;;;;;;;;;8.25;8.25;;;;;26.42;48.00;100740.31;4959779;28;45301;-38
2023/08/24 05:53:58;;;;;;;;;9.00;9.00;;;;;26.43;47.73;100739.34;4959515;28;54372;-46
2023/08/24 05:56:24;;;;;;;;;9.75;9.00;;;;;26.43;48.02;100723.41;4959630;28;45389;-40
2023/08/24 05:58:50;;;;;;;;;7.25;7.25;;;;;26.44;48.04;100721.63;4942442;28;45380;-39
2023/08/24 06:01:15;;;;;;;;;10.00;8.50;;;;;26.42;48.05;100716.41;4960143;28;45307;-41
2023/08/24 06:03:41;;;;;;;;;10.75;9.75;;;;;26.43;47.83;100719.94;4959537;28;45370;-40
2023/08/24 06:06:08;;;;;;;;;10.25;9.00;;;;;26.43;47.88;100723.41;4959095;28;57738;-45
2023/08/24 06:08:33;;;;;;;;;9.00;9.00;;;;;26.43;47.92;100733.22;4959706;28;45520;-43
2023/08/24 06:10:58;;;;;;;;;7.00;7.00;;;;;26.43;47.90;100727.91;4959706;28;45457;-41
2023/08/24 06:13:24;;;;;;;;;12.00;10.75;;;;;26.42;47.95;100735.00;4959369;28;47325;-46
2023/08/24 06:15:49;;;;;;;;;12.00;10.00;;;;;26.42;47.94;100739.50;4959453;28;45365;-48
2023/08/24 06:18:15;;;;;;;;;8.00;8.00;;;;;26.42;48.01;100735.00;4959402;28;53122;-48
2023/08/24 06:20:41;;;;;;;;;7.50;7.25;;;;;26.43;47.71;100734.03;4959677;28;45640;-42
2023/08/24 06:23:07;;;;;;;;;11.00;10.00;;;;;26.44;47.68;100740.22;4957608;28;57627;-45
2023/08/24 06:25:33;;;;;;;;;8.50;8.50;;;;;26.45;47.99;100742.72;4958139;28;45835;-44
2023/08/24 06:28:04;;;;;;;;;9.50;9.50;;;;;26.46;47.61;100749.75;4959397;28;45311;-51
2023/08/24 06:30:32;;;;;;;;;8.75;8.75;;;;;26.47;47.54;100745.25;4959404;28;45514;-51
2023/08/24 06:32:58;;;;;;;;;8.50;8.50;;;;;26.46;47.58;100744.41;4959029;28;46721;-41
2023/08/24 06:35:24;;;;;;;;;14.00;10.00;;;;;26.47;47.81;100737.28;4959197;28;45378;-53
2023/08/24 06:37:49;;;;;;;;;9.25;9.25;;;;;26.48;47.61;100742.50;4959403;28;45287;-44
2023/08/24 06:40:14;;;;;;;;;12.00;10.00;;;;;26.49;47.53;100738.00;4959614;28;45564;-50
2023/08/24 06:42:40;;;;;;;;;11.75;10.25;;;;;26.50;47.67;100743.22;4959095;28;46086;-57
2023/08/24 06:45:06;;;;;;;;;9.00;9.00;;;;;26.50;47.52;100735.25;4959100;28;45270;-52
2023/08/24 06:47:32;;;;;;;;;10.25;7.25;;;;;26.51;47.22;100726.25;4959248;28;45383;-52
2023/08/24 06:49:57;;;;;;;;;12.75;9.00;;;;;26.55;47.33;100721.56;4959135;28;45474;-49
2023/08/24 06:52:22;;;;;;;;;10.25;9.25;;;;;26.56;47.41;100717.94;4958739;28;46123;-47
2023/08/24 06:54:53;;;;;;;;;9.75;8.25;;;;;26.59;47.39;100728.28;4958772;28;52729;-49
2023/08/24 06:57:18;;;;;;;;;11.25;9.00;;;;;26.61;47.45;100730.84;4959016;28;45252;-51
2023/08/24 06:59:43;;;;;;;;;8.00;8.00;;;;;26.63;47.19;100723.56;4958926;28;47273;-52
2023/08/24 07:02:09;;;;;;;;;12.00;9.00;;;;;26.65;47.13;100727.81;4958425;28;56062;-50
2023/08/24 07:04:34;;;;;;;;;10.25;10.00;;;;;26.67;47.21;100735.63;4958710;28;45426;-44
2023/08/24 07:07:02;;;;;;;;;10.00;9.25;;;;;26.68;47.04;100737.31;4958858;28;45485;-48
2023/08/24 07:09:28;;;;;;;;;13.00;9.75;;;;;26.68;47.28;100734.66;4958702;28;45408;-47
2023/08/24 07:11:53;;;;;;;;;12.00;9.50;;;;;26.70;47.54;100736.22;4958424;28;46182;-49
2023/08/24 07:14:18;;;;;;;;;10.25;9.50;;;;;26.70;47.71;100725.59;4958858;28;45276;-44
2023/08/24 07:16:44;;;;;;;;;9.50;8.50;;;;;26.72;47.48;100730.78;4958850;28;45276;-45
2023/08/24 07:19:10;;;;;;;;;12.00;11.00;;;;;26.74;47.71;100731.47;4958764;28;45223;-42
2023/08/24 07:21:35;;;;;;;;;12.25;9.00;;;;;26.75;47.83;100722.53;4958283;28;46185;-44
2023/08/24 07:24:04;;;;;;;;;10.50;9.25;;;;;26.78;47.36;100716.16;4958388;28;45212;-41
2023/08/24 07:26:30;;;;;;;;;11.75;11.25;;;;;26.80;47.44;100715.06;4958391;28;45407;-46
2023/08/24 07:28:55;;;;;;;;;10.00;8.75;;;;;26.83;47.30;100711.28;4958559;28;45460;-43
2023/08/24 07:31:21;;;;;;;;;15.75;10.50;;;;;26.84;47.39;100710.31;4958371;28;45359;-45
2023/08/24 07:33:48;;;;;;;;;11.00;9.75;;;;;26.87;47.44;100704.75;4958452;28;45450;-43
2023/08/24 07:36:14;;;;;;;;;12.00;10.00;;;;;26.88;47.35;100706.44;4958498;28;45330;-38
2023/08/24 07:38:39;;;;;;;;;10.75;9.75;;;;;26.89;47.50;100702.81;4958406;28;45256;-45
2023/08/24 07:41:06;;;;;;;;;9.75;8.25;;;;;26.90;47.36;100698.31;4957999;28;46181;-42
2023/08/24 07:43:32;;;;;;;;;11.00;11.00;;;;;26.91;47.47;100692.03;4956968;28;45679;-48
2023/08/24 07:45:57;;;;;;;;;10.75;10.50;;;;;26.93;47.43;100695.41;4940697;28;45252;-46
2023/08/24 07:48:23;;;;;;;;;13.50;11.75;;;;;26.94;47.29;100705.06;4958392;28;45487;-44
2023/08/24 07:50:48;;;;;;;;;12.00;10.00;;;;;26.94;47.51;100697.94;4957946;28;45220;-49
2023/08/24 07:53:14;;;;;;;;;11.00;10.00;;;;;26.96;47.17;100689.81;4957122;28;45557;-44
2023/08/24 07:55:39;;;;;;;;;7.50;6.25;;;;;26.98;47.15;100680.75;4957510;28;45458;-46
2023/08/24 07:58:04;;;;;;;;;11.00;9.25;;;;;27.00;47.25;100667.31;4958028;28;45477;-45
2023/08/24 08:00:30;;;;;;;;;9.50;9.00;;;;;27.00;46.95;100665.50;4957140;28;62153;-45
2023/08/24 08:02:56;;;;;;;;;10.75;9.50;;;;;27.02;46.92;100649.41;4957697;28;45471;-46
2023/08/24 08:05:22;;;;;;;;;9.25;9.25;;;;;27.03;47.08;100651.09;4958099;28;45263;-42
2023/08/24 08:07:48;;;;;;;;;12.00;9.50;;;;;27.04;46.62;100649.25;4957801;28;45354;-43
2023/08/24 08:10:13;;;;;;;;;12.75;10.00;;;;;27.06;46.94;100655.28;4957436;28;46560;-48
2023/08/24 08:12:38;;;;;;;;;10.75;10.00;;;;;27.05;46.98;100662.44;4957392;28;45412;-50
2023/08/24 08:15:04;;;;;;;;;9.75;8.50;;;;;27.08;46.76;100679.94;4957620;28;45318;-49
2023/08/24 08:17:30;;;;;;;;;13.00;12.00;;;;;27.08;46.84;100680.78;4957751;28;45416;-47
2023/08/24 08:19:56;;;;;;;;;9.75;9.75;;;;;27.10;47.21;100688.66;4957423;28;46896;-41
2023/08/24 08:22:22;;;;;;;;;13.25;9.75;;;;;27.12;47.02;100681.38;4957530;28;45714;-50
2023/08/24 08:24:47;;;;;;;;;9.00;8.75;;;;;27.12;46.75;100684.03;4957509;28;45640;-48
2023/08/24 08:27:13;;;;;;;;;10.50;10.50;;;;;27.13;46.94;100685.69;4957601;28;45514;-44
2023/08/24 08:29:38;;;;;;;;;10.25;10.25;;;;;27.14;46.74;100677.59;4957169;28;46656;-46
2023/08/24 08:32:05;;;;;;;;;8.50;7.75;;;;;27.14;46.74;100690.91;4957143;28;45437;-50
2023/08/24 08:34:31;;;;;;;;;10.00;10.00;;;;;27.16;46.81;100704.06;4957430;28;45731;-50
2023/08/24 08:36:57;;;;;;;;;13.50;10.50;;;;;27.16;46.79;100704.06;4957435;28;45564;-40
2023/08/24 08:39:22;;;;;;;;;10.75;9.00;;;;;27.17;46.77;100700.44;4957496;28;46167;-51
2023/08/24 08:41:48;;;;;;;;;10.50;9.75;;;;;27.15;47.03;100697.91;4957159;28;45389;-45
2023/08/24 08:44:14;;;;;;;;;11.25;10.00;;;;;27.17;46.83;100709.25;4957221;28;45291;-50
2023/08/24 08:46:43;;;;;;;;;11.00;10.00;;;;;27.20;47.03;100717.94;4957379;28;45414;-50
2023/08/24 08:49:09;;;;;;;;;10.25;10.25;;;;;27.20;46.61;100716.13;4956932;28;46099;-48
2023/08/24 08:51:37;;;;;;;;;14.25;10.25;;;;;27.22;46.55;100713.34;4956586;28;45377;-50
2023/08/24 08:54:05;;;;;;;;;10.25;9.25;;;;;27.23;47.01;100712.38;4957162;28;45342;-52
2023/08/24 08:56:31;;;;;;;;;12.00;10.25;;;;;27.23;46.71;100715.84;4957134;28;45574;-51
2023/08/24 08:59:00;;;;;;;;;10.25;10.25;;;;;27.24;46.55;100717.53;4957114;28;46485;-46
2023/08/24 09:01:26;;;;;;;;;10.00;9.75;;;;;27.24;46.65;100717.53;4957042;28;45350;-43
2023/08/24 09:03:53;;;;;;;;;11.00;11.00;;;;;27.26;46.58;100717.44;4957588;28;45391;-47
2023/08/24 09:06:19;;;;;;;;;13.25;11.00;;;;;27.26;46.61;100696.97;4960617;28;45274;-41
2023/08/24 09:08:45;;;;;;;;;11.00;9.75;;;;;27.26;46.78;100682.84;4960171;28;46202;-49
2023/08/24 09:11:10;;;;;;;;;12.75;11.50;;;;;27.27;46.75;100664.06;4960179;28;45393;-48
2023/08/24 12:57:10;;;;;;;;;10.75;7.25;;;;;27.38;49.65;100742.97;4905622;26;45274;-41
2023/08/24 12:59:35;;;;;;;;;6.50;6.50;;;;;27.39;49.78;100707.41;4937882;28;45327;-41
2023/08/24 13:02:00;;;;;;;;;6.50;6.00;;;;;27.38;50.28;100655.16;4937872;28;45418;-41
2023/08/24 13:04:28;;;;;;;;;5.25;5.25;;;;;27.37;50.36;100644.63;4919997;28;60767;-41
2023/08/24 13:06:53;;;;;;;;;12.25;9.50;;;;;27.34;50.13;100645.75;4938180;28;45440;-39
2023/08/24 13:09:18;;;;;;;;;7.75;7.50;;;;;27.31;50.17;100596.31;4920765;28;47178;-39
2023/08/24 13:11:44;;;;;;;;;7.75;6.50;;;;;27.29;49.97;100560.16;4937518;28;47991;-38
2023/08/24 13:14:09;;;;;;;;;6.50;6.00;;;;;27.28;50.15;100569.13;4937590;28;47531;-39
2023/08/24 13:16:34;;;;;;;;;6.50;6.50;;;;;27.29;49.89;100586.75;4937968;28;45384;-39
2023/08/24 13:18:59;;;;;;;;;9.00;7.50;;;;;27.29;50.20;100639.97;4936722;28;68877;-41
2023/08/24 13:21:26;;;;;;;;;8.25;7.50;;;;;27.29;50.39;100670.09;4937586;28;45472;-40
2023/08/24 13:23:51;;;;;;;;;8.00;7.25;;;;;27.26;50.32;100678.34;4937863;28;45362;-38
2023/08/24 13:26:21;;;;;;;;;8.75;8.00;;;;;27.28;50.33;100687.03;4938342;28;45588;-39
2023/08/24 13:28:47;;;;;;;;;7.75;7.75;;;;;27.29;50.60;100674.56;4937881;28;46178;-38
2023/08/24 13:31:13;;;;;;;;;10.00;7.00;;;;;27.29;50.37;100654.13;4937565;28;45746;-37
2023/08/24 13:33:38;;;;;;;;;11.00;9.75;;;;;27.29;50.65;100663.94;4904418;28;45266;-39
2023/08/24 13:36:04;;;;;;;;;10.00;7.00;;;;;27.29;50.41;100653.28;4937276;28;50496;-39
2023/08/24 13:38:30;;;;;;;;;10.50;6.25;;;;;27.30;50.69;100644.31;4937342;28;45374;-37
2023/08/24 13:40:55;;;;;;;;;9.25;9.00;;;;;27.31;50.31;100643.34;4920255;28;45519;-40
2023/08/24 13:43:20;;;;;;;;;6.50;6.25;;;;;27.32;50.68;100647.69;4937516;28;52263;-39
2023/08/24 13:45:45;;;;;;;;;7.00;7.00;;;;;27.32;50.43;100639.72;4937544;28;45501;-37
2023/08/24 13:48:11;;;;;;;;;8.00;8.00;;;;;27.30;50.26;100620.38;4936732;28;62315;-38
2023/08/24 13:50:36;;;;;;;;;8.50;7.00;;;;;27.30;50.50;100604.41;4938743;28;45343;-39
2023/08/24 13:53:02;;;;;;;;;8.00;8.00;;;;;27.30;50.50;100601.75;4943169;28;45370;-41
2023/08/24 13:55:27;;;;;;;;;7.25;6.75;;;;;27.31;50.37;100609.63;4950588;28;45469;-39
2023/08/24 13:57:52;;;;;;;;;8.25;8.25;;;;;27.33;50.52;100598.81;4949358;28;46496;-37
2023/08/24 14:00:18;;;;;;;;;8.50;7.00;;;;;27.32;50.56;100575.84;4949157;28;45253;-39
2023/08/24 14:02:44;;;;;;;;;12.50;7.00;;;;;27.32;50.49;100573.19;4950355;28;45221;-38
2023/08/24 14:05:10;;;;;;;;;6.75;4.75;;;;;27.32;50.69;100543.91;4949365;28;45363;-36
2023/08/24 14:07:36;;;;;;;;;10.00;8.25;;;;;27.32;50.44;100538.59;4948789;28;46561;-40
2023/08/24 14:10:03;;;;;;;;;14.25;7.75;;;;;27.33;50.55;100518.16;4950143;28;45980;-37
2023/08/24 14:12:29;;;;;;;;;8.50;8.50;;;;;27.31;50.24;100499.66;4948649;28;45726;-38
2023/08/24 14:14:54;;;;;;;;;8.75;8.50;;;;;27.32;50.55;100482.72;4956965;28;45487;-41
2023/08/24 14:17:20;;;;;;;;;11.00;9.50;;;;;27.32;50.61;100477.41;4959733;28;45290;-42
2023/08/24 14:19:45;;;;;;;;;8.75;7.75;;;;;27.33;50.62;100472.94;4959502;28;45414;-37
2023/08/24 14:22:10;;;;;;;;;8.00;8.00;;;;;27.33;50.80;100475.59;4959594;28;45468;-41
2023/08/24 14:24:36;;;;;;;;;8.25;7.75;;;;;27.33;50.69;100473.75;4959815;28;45339;-38
2023/08/24 14:27:01;;;;;;;;;10.50;8.25;;;;;27.34;50.67;100480.78;4959382;28;45418;-39
2023/08/24 14:29:26;;;;;;;;;9.00;9.00;;;;;27.35;50.49;100495.75;4959406;28;45358;-40
2023/08/24 14:31:52;;;;;;;;;9.00;8.25;;;;;27.34;50.98;100480.78;4959639;28;45548;-40
2023/08/24 14:34:17;;;;;;;;;11.50;8.75;;;;;27.35;50.87;100485.13;4959272;28;46401;-41
2023/08/24 14:36:42;;;;;;;;;8.25;7.25;;;;;27.34;50.50;100491.41;4959201;28;46334;-37
2023/08/24 14:39:08;;;;;;;;;8.75;7.75;;;;;27.34;50.53;100503.88;4959261;28;45244;-36
2023/08/24 14:41:33;;;;;;;;;10.25;9.00;;;;;27.35;50.74;100505.53;4959286;28;45749;-39
2023/08/24 14:43:58;;;;;;;;;9.00;8.00;;;;;27.35;50.87;100495.75;4959091;28;46309;-43
2023/08/24 14:46:23;;;;;;;;;9.50;7.00;;;;;27.33;51.21;100481.75;4959106;28;50576;-43
2023/08/24 14:48:49;;;;;;;;;9.00;8.25;;;;;27.34;51.18;100488.75;4941777;28;45270;-37
2023/08/24 14:51:14;;;;;;;;;7.75;7.75;;;;;27.34;51.17;100488.75;4959215;28;45414;-39
2023/08/24 14:53:39;;;;;;;;;10.75;9.25;;;;;27.34;51.36;100483.44;4959200;28;45607;-40
2023/08/24 14:56:05;;;;;;;;;10.00;8.75;;;;;27.35;51.35;100478.94;4958745;28;46934;-40
2023/08/24 14:58:30;;;;;;;;;11.25;10.00;;;;;27.33;51.31;100456.97;4958896;28;45346;-39